Time;durP1;ratioP1;P1;durP2;ratioP2;P2;SDS_P1;SDS_P2;PMS_P1;PMS_P2;Temp;Humidity;BMP_temperature;BMP_pressure;BME280_temperature;BME280_humidity;BME280_pressure;Samples;Min_cycle;Max_cycle;Signal;HPM_P1;HPM_P2
2022/07/03 00:02:01;;;;;;;14.70;8.00;;;;;;;23.05;66.17;101374.17;106456;1256;62245;-73
2022/07/03 00:04:30;;;;;;;9.80;8.30;;;;;;;23.03;67.29;101376.42;106570;1256;61572;-75
2022/07/03 00:06:59;;;;;;;12.40;9.00;;;;;;;22.99;67.69;101375.21;106712;1255;59339;-75
2022/07/03 00:09:28;;;;;;;12.20;8.80;;;;;;;22.96;68.41;101374.09;106292;1256;73978;-74
2022/07/03 00:11:56;;;;;;;10.60;8.40;;;;;;;22.96;68.67;101374.52;106341;1257;60777;-72
2022/07/03 00:14:25;;;;;;;10.10;8.50;;;;;;;22.96;68.47;101375.31;106294;1256;59116;-75
2022/07/03 00:16:54;;;;;;;18.30;8.80;;;;;;;22.97;68.99;101371.35;106635;1256;71993;-71
2022/07/03 00:19:23;;;;;;;12.80;8.10;;;;;;;22.98;68.67;101368.73;106666;1255;71508;-72
2022/07/03 00:22:04;;;;;;;12.20;8.40;;;;;;;22.99;68.75;101365.09;106635;1255;70142;-72
2022/07/03 00:24:50;;;;;;;12.00;8.50;;;;;;;22.98;68.63;101369.29;106410;1257;63419;-72
2022/07/03 00:27:22;;;;;;;14.80;8.10;;;;;;;22.96;68.57;101371.45;106607;1256;59023;-71
2022/07/03 00:29:55;;;;;;;12.50;8.40;;;;;;;22.93;68.34;101372.84;106326;1259;59082;-71
2022/07/03 00:32:25;;;;;;;11.30;8.60;;;;;;;22.88;68.68;101367.60;106338;1259;71800;-72
2022/07/03 00:34:57;;;;;;;12.00;8.60;;;;;;;22.83;69.04;101368.87;106446;1258;60989;-73
2022/07/03 00:37:25;;;;;;;11.00;8.60;;;;;;;22.78;67.72;101368.16;106418;1258;59978;-73
2022/07/03 00:39:54;;;;;;;12.20;8.30;;;;;;;22.73;66.91;101360.45;106648;1256;63176;-72
2022/07/03 00:42:23;;;;;;;13.00;8.40;;;;;;;22.65;68.38;101363.44;106482;1258;58846;-73
2022/07/03 00:44:57;;;;;;;12.20;8.40;;;;;;;22.56;69.16;101362.68;106687;1255;58668;-73
2022/07/03 00:47:27;;;;;;;10.30;8.30;;;;;;;22.50;68.80;101361.26;106682;1255;72950;-76
2022/07/03 00:50:00;;;;;;;9.80;7.90;;;;;;;22.42;69.53;101360.52;106361;1259;63188;-76
2022/07/03 00:52:30;;;;;;;10.00;8.30;;;;;;;22.36;69.60;101365.45;106632;1255;70239;-74
2022/07/03 00:55:00;;;;;;;12.00;8.50;;;;;;;22.31;68.52;101366.91;106489;1257;62836;-75
2022/07/03 00:57:30;;;;;;;9.70;7.60;;;;;;;22.25;68.71;101369.95;106696;1255;58802;-75
2022/07/03 01:00:00;;;;;;;13.60;8.20;;;;;;;22.17;69.15;101370.48;106348;1256;60974;-74
2022/07/03 01:02:40;;;;;;;10.90;8.70;;;;;;;22.11;69.99;101372.77;106449;1257;64697;-77
2022/07/03 01:05:30;;;;;;;11.20;8.10;;;;;;;22.08;70.09;101368.58;106275;1258;63248;-75
2022/07/03 01:08:27;;;;;;;9.70;7.90;;;;;;;22.02;70.71;101365.98;106489;1257;59883;-70
2022/07/03 01:11:15;;;;;;;9.50;7.90;;;;;;;21.94;71.20;101359.13;106515;1257;74269;-75
2022/07/03 01:13:44;;;;;;;9.20;7.50;;;;;;;21.88;71.86;101359.57;106468;1257;59388;-78
2022/07/03 01:16:41;;;;;;;11.00;7.70;;;;;;;21.87;70.95;101361.99;106626;1257;58761;-74
2022/07/03 01:19:37;;;;;;;10.10;7.30;;;;;;;21.85;70.32;101358.37;106490;1257;73663;-71
2022/07/03 01:22:34;;;;;;;9.80;7.30;;;;;;;21.76;71.38;101354.21;106299;1258;61371;-72
2022/07/03 01:25:37;;;;;;;11.80;7.70;;;;;;;21.70;72.09;101355.58;106539;1257;70726;-71
2022/07/03 01:28:24;;;;;;;10.70;6.90;;;;;;;21.66;71.90;101348.73;106531;1257;74805;-72
2022/07/03 01:30:54;;;;;;;12.50;7.60;;;;;;;21.61;72.85;101346.11;106582;1257;58898;-73
2022/07/03 01:33:26;;;;;;;9.50;7.60;;;;;;;21.60;71.97;101346.02;106705;1257;58989;-72
2022/07/03 01:35:59;;;;;;;8.20;6.80;;;;;;;21.58;73.33;101343.92;106721;1257;74089;-72
2022/07/03 01:38:29;;;;;;;8.80;6.50;;;;;;;21.62;72.40;101343.20;106507;1258;71683;-72
2022/07/03 01:41:02;;;;;;;8.40;6.70;;;;;;;21.65;72.55;101341.27;106707;1257;60304;-71
2022/07/03 01:43:43;;;;;;;;;;;;;;;21.70;72.07;101337.34;106472;1257;63344;-77
2022/07/03 01:46:13;;;;;;;8.90;6.70;;;;;;;21.71;71.08;101335.27;106672;1256;58945;-70
2022/07/03 01:48:45;;;;;;;7.70;6.10;;;;;;;21.70;71.08;101332.38;106473;1257;59944;-71
2022/07/03 01:51:16;;;;;;;7.60;6.20;;;;;;;21.67;70.41;101333.22;106597;1257;74169;-78
2022/07/03 01:53:49;;;;;;;9.00;6.00;;;;;;;21.65;70.26;101336.27;106538;1256;61678;-74
2022/07/03 01:56:21;;;;;;;9.80;5.50;;;;;;;21.64;71.09;101340.59;106451;1256;69568;-74
2022/07/03 01:58:50;;;;;;;8.30;6.10;;;;;;;21.65;71.11;101342.15;106617;1257;72680;-73
2022/07/03 02:01:43;;;;;;;8.60;5.70;;;;;;;21.64;71.36;101341.40;106561;1257;61288;-73
2022/07/03 02:04:31;;;;;;;8.10;5.90;;;;;;;21.60;71.30;101341.92;106406;1258;57938;-76
2022/07/03 02:07:29;;;;;;;10.70;6.10;;;;;;;21.59;71.47;101346.76;106503;1257;73788;-75
2022/07/03 02:10:09;;;;;;;8.30;5.70;;;;;;;21.58;72.11;101345.56;106511;1257;71606;-75
2022/07/03 02:12:59;;;;;;;9.50;5.30;;;;;;;21.62;71.46;101346.39;106349;1257;60732;-74
2022/07/03 02:15:35;;;;;;;7.80;5.40;;;;;;;21.62;71.82;101347.21;106527;1257;62572;-72
2022/07/03 02:18:31;;;;;;;9.60;6.00;;;;;;;21.62;71.34;101345.96;106531;1257;59161;-78
2022/07/03 02:21:09;;;;;;;8.30;6.00;;;;;;;21.60;70.84;101342.52;106534;1257;60463;-73
2022/07/03 02:24:07;;;;;;;8.40;5.80;;;;;;;21.58;72.56;101345.19;106544;1257;62719;-75
2022/07/03 02:26:42;;;;;;;9.20;5.40;;;;;;;21.60;72.74;101347.15;106504;1257;61687;-78
2022/07/03 02:29:17;;;;;;;9.40;5.90;;;;;;;21.62;72.40;101348.28;106457;1257;70563;-72
2022/07/03 02:31:57;;;;;;;6.90;5.10;;;;;;;21.64;72.45;101352.56;106499;1257;62938;-73
2022/07/03 02:34:28;;;;;;;7.30;5.40;;;;;;;21.61;72.78;101352.27;106629;1257;61374;-69
2022/07/03 02:37:10;;;;;;;7.40;5.20;;;;;;;21.62;72.69;101357.13;106401;1259;61791;-69
2022/07/03 02:40:10;;;;;;;9.80;5.40;;;;;;;21.64;72.54;101358.51;106483;1256;63629;-68
2022/07/03 02:43:14;;;;;;;6.30;5.40;;;;;;;21.65;72.68;101358.06;106453;1257;71832;-67
2022/07/03 02:49:30;;;;;;;9.20;5.80;;;;;;;21.59;73.12;101352.61;106564;1255;64371;-67
2022/07/03 02:52:21;;;;;;;13.60;5.70;;;;;;;21.56;73.08;101354.11;106664;1257;59076;-66
2022/07/03 02:54:53;;;;;;;10.10;6.10;;;;;;;21.57;73.11;101351.30;106685;1257;60622;-68
2022/07/03 02:57:22;;;;;;;9.20;5.80;;;;;;;21.57;73.17;101345.36;106637;1256;73771;-67
2022/07/03 03:00:03;;;;;;;8.30;6.10;;;;;;;21.56;73.09;101344.07;106667;1257;61367;-66
2022/07/03 03:02:49;;;;;;;8.70;5.70;;;;;;;21.54;73.10;101345.42;106626;1255;59252;-68
2022/07/03 03:05:25;;;;;;;6.70;5.50;;;;;;;21.54;73.21;101350.27;106686;1255;62525;-66
2022/07/03 03:08:43;;;;;;;6.70;4.70;;;;;;;21.54;72.51;101350.56;106626;1257;59006;-67
2022/07/03 03:11:19;;;;;;;8.80;5.70;;;;;;;21.52;72.62;101348.73;105738;1264;58848;-67
2022/07/03 03:13:55;;;;;;;8.80;5.30;;;;;;;21.51;73.08;101355.04;105887;1263;62243;-67
2022/07/03 03:16:25;;;;;;;8.00;6.00;;;;;;;21.52;73.33;101359.72;106156;1257;73420;-67
2022/07/03 03:18:54;;;;;;;8.30;5.40;;;;;;;21.52;73.53;101360.98;106599;1255;70232;-66
2022/07/03 03:21:28;;;;;;;6.70;5.00;;;;;;;21.54;73.56;101359.64;106473;1255;73880;-68
2022/07/03 03:24:00;;;;;;;9.90;5.80;;;;;;;21.59;73.36;101359.73;106600;1255;59035;-67
2022/07/03 03:26:31;;;;;;;12.00;5.40;;;;;;;21.67;72.85;101364.95;106347;1256;61164;-66
2022/07/03 03:29:00;;;;;;;8.30;5.60;;;;;;;21.73;72.64;101367.02;106543;1258;62123;-65
2022/07/03 03:31:29;;;;;;;6.80;5.40;;;;;;;21.78;72.47;101366.41;106749;1255;61700;-65
2022/07/03 03:33:59;;;;;;;7.90;5.80;;;;;;;21.81;72.06;101364.30;106668;1256;59180;-67
2022/07/03 03:36:29;;;;;;;10.70;5.00;;;;;;;21.85;72.21;101366.70;106443;1257;62585;-66
2022/07/03 03:38:58;;;;;;;7.40;5.50;;;;;;;21.90;72.06;101370.21;106365;1256;63065;-65
2022/07/03 03:41:27;;;;;;;7.40;5.80;;;;;;;21.96;72.28;101373.83;106572;1257;61168;-65
2022/07/03 03:43:56;;;;;;;10.20;6.00;;;;;;;22.02;71.66;101377.48;106616;1255;73543;-65
2022/07/03 03:46:25;;;;;;;7.50;5.90;;;;;;;22.06;71.72;101377.84;106586;1258;61951;-66
2022/07/03 03:48:54;;;;;;;9.50;5.80;;;;;;;22.12;71.44;101380.08;106672;1257;59282;-69
2022/07/03 03:51:23;;;;;;;9.20;6.00;;;;;;;22.15;71.76;101382.41;106748;1255;62507;-70
2022/07/03 03:53:52;;;;;;;8.90;5.80;;;;;;;22.23;71.11;101382.67;106806;1255;62412;-70
2022/07/03 03:56:21;;;;;;;8.80;5.70;;;;;;;22.32;71.15;101383.02;106831;1256;59034;-72
2022/07/03 03:58:50;;;;;;;10.20;6.70;;;;;;;22.42;70.81;101381.18;106769;1255;62243;-69
2022/07/03 04:01:19;;;;;;;10.00;6.30;;;;;;;22.51;70.33;101380.28;106839;1256;61580;-68
2022/07/03 04:03:48;;;;;;;7.70;5.40;;;;;;;22.60;69.71;101378.94;106810;1255;59421;-67
2022/07/03 04:06:20;;;;;;;7.60;6.40;;;;;;;22.64;69.83;101373.83;107189;1255;72187;-68
2022/07/03 04:08:48;;;;;;;8.10;6.00;;;;;;;22.64;70.11;101376.98;107009;1256;62862;-67
2022/07/03 04:11:18;;;;;;;9.90;5.90;;;;;;;22.77;69.75;101378.12;106972;1256;59903;-69
2022/07/03 04:13:47;;;;;;;8.10;6.50;;;;;;;22.91;69.24;101373.98;106567;1258;63632;-70
2022/07/03 04:16:16;;;;;;;9.80;6.70;;;;;;;22.99;69.04;101374.10;106566;1256;60930;-69
2022/07/03 04:18:45;;;;;;;7.70;6.10;;;;;;;23.06;68.64;101374.25;106753;1255;69634;-68
2022/07/03 04:21:14;;;;;;;10.10;6.90;;;;;;;23.10;68.46;101369.52;106527;1256;73099;-66
2022/07/03 04:23:43;;;;;;;9.90;6.70;;;;;;;23.05;69.29;101369.80;106660;1255;57977;-67
2022/07/03 04:26:12;;;;;;;9.90;6.70;;;;;;;23.07;69.15;101370.15;106705;1256;58970;-67
2022/07/03 04:28:44;;;;;;;12.00;6.90;;;;;;;23.16;69.16;101363.83;106691;1253;73695;-68
2022/07/03 04:31:13;;;;;;;8.70;7.40;;;;;;;23.23;69.03;101361.34;106711;1254;72825;-67
2022/07/03 04:33:42;;;;;;;10.80;6.70;;;;;;;23.16;69.86;101366.00;106739;1255;59695;-66
2022/07/03 04:36:16;;;;;;;10.00;7.00;;;;;;;23.20;69.87;101364.16;106694;1255;63338;-67
2022/07/03 04:38:45;;;;;;;9.60;7.90;;;;;;;23.29;69.19;101362.71;106693;1255;58588;-68
2022/07/03 04:41:14;;;;;;;9.20;8.30;;;;;;;23.21;69.40;101363.96;106579;1255;61437;-68
2022/07/03 04:43:42;;;;;;;12.30;7.40;;;;;;;23.22;69.27;101359.40;106709;1256;74683;-68
2022/07/03 04:46:12;;;;;;;10.10;7.50;;;;;;;23.22;69.56;101361.65;106752;1255;71312;-66
2022/07/03 04:48:41;;;;;;;9.80;7.30;;;;;;;23.25;69.97;101355.70;106799;1255;59794;-67
2022/07/03 04:51:10;;;;;;;10.40;7.90;;;;;;;23.40;69.45;101355.55;106723;1255;62975;-67
2022/07/03 04:53:39;;;;;;;11.80;8.10;;;;;;;23.40;69.18;101357.69;106742;1255;58974;-68
2022/07/03 04:56:08;;;;;;;12.90;8.40;;;;;;;23.38;69.32;101355.01;106557;1258;57475;-68
2022/07/03 04:58:37;;;;;;;9.90;8.80;;;;;;;23.37;70.06;101354.15;106797;1255;71779;-69
2022/07/03 05:01:06;;;;;;;10.70;8.20;;;;;;;23.47;69.65;101356.66;106615;1256;60935;-68
2022/07/03 05:03:35;;;;;;;9.20;8.00;;;;;;;23.63;69.08;101356.98;106811;1255;68832;-71
2022/07/03 05:06:04;;;;;;;11.30;9.40;;;;;;;23.62;68.82;101357.21;106816;1255;63883;-67
2022/07/03 05:08:33;;;;;;;14.80;8.90;;;;;;;23.58;68.74;101356.27;106327;1255;614942;-69
2022/07/03 05:11:01;;;;;;;9.50;8.30;;;;;;;23.56;69.07;101356.68;106469;1256;60499;-69
2022/07/03 05:13:30;;;;;;;10.20;7.90;;;;;;;23.53;69.20;101358.03;106623;1256;72733;-70
2022/07/03 05:15:59;;;;;;;10.40;8.10;;;;;;;23.53;69.15;101354.14;106548;1256;62279;-69
2022/07/03 05:18:28;;;;;;;10.60;7.30;;;;;;;23.62;68.82;101356.52;106258;1257;59284;-69
2022/07/03 05:20:57;;;;;;;10.90;7.70;;;;;;;23.64;68.64;101356.50;106597;1255;73507;-68
2022/07/03 05:23:25;;;;;;;12.40;8.80;;;;;;;23.66;68.35;101356.73;106568;1254;61781;-67
2022/07/03 05:25:55;;;;;;;11.90;7.80;;;;;;;23.55;69.13;101360.30;106581;1255;61630;-70
2022/07/03 05:28:24;;;;;;;9.90;8.90;;;;;;;23.65;68.54;101357.66;106597;1254;73601;-69
2022/07/03 05:30:53;;;;;;;12.10;8.70;;;;;;;23.79;68.17;101357.73;106563;1255;60792;-70
2022/07/03 05:33:22;;;;;;;10.70;8.20;;;;;;;23.90;67.74;101356.56;106566;1255;59357;-69
2022/07/03 05:35:51;;;;;;;11.20;8.40;;;;;;;24.01;67.72;101360.98;106582;1255;63307;-69
2022/07/03 05:41:48;;;;;;;8.90;7.90;;;;;;;24.19;67.04;101365.54;106032;1261;59202;-69
2022/07/03 05:44:17;;;;;;;9.00;7.90;;;;;;;24.32;66.31;101360.55;105948;1262;74601;-70
2022/07/03 05:46:46;;;;;;;10.70;8.30;;;;;;;24.25;66.70;101360.98;106393;1256;63025;-69
2022/07/03 05:49:14;;;;;;;12.00;8.60;;;;;;;24.29;66.41;101366.34;106700;1255;69727;-70
2022/07/03 05:51:43;;;;;;;12.40;8.70;;;;;;;24.32;66.29;101364.94;106712;1256;74814;-69
2022/07/03 05:54:12;;;;;;;9.50;7.90;;;;;;;24.37;65.95;101366.59;106715;1255;59078;-68
2022/07/03 05:56:41;;;;;;;9.30;7.90;;;;;;;24.42;66.10;101365.91;106702;1256;58010;-68
2022/07/03 05:59:10;;;;;;;9.10;8.10;;;;;;;24.41;66.14;101366.15;106625;1255;63224;-70
2022/07/03 06:01:39;;;;;;;11.80;8.00;;;;;;;24.48;65.72;101368.84;106529;1255;72476;-69
2022/07/03 06:04:08;;;;;;;11.80;8.20;;;;;;;24.42;66.24;101366.79;106750;1255;68603;-69
2022/07/03 06:06:37;;;;;;;15.40;8.40;;;;;;;24.60;65.44;101369.31;106527;1256;62536;-69
2022/07/03 06:09:06;;;;;;;10.80;8.30;;;;;;;24.64;65.10;101371.73;106474;1256;57326;-70
2022/07/03 06:11:35;;;;;;;12.00;8.20;;;;;;;24.57;65.09;101371.63;106700;1255;59448;-69
2022/07/03 06:14:03;;;;;;;11.50;9.10;;;;;;;24.55;65.29;101372.54;106689;1255;74673;-70
2022/07/03 06:16:33;;;;;;;11.40;8.40;;;;;;;24.66;64.87;101374.69;106726;1256;61618;-71
2022/07/03 06:19:02;;;;;;;10.50;8.20;;;;;;;24.72;64.64;101376.23;106671;1255;59286;-70
2022/07/03 06:21:32;;;;;;;11.40;8.60;;;;;;;24.75;64.76;101377.95;106627;1258;63381;-68
2022/07/03 06:24:01;;;;;;;10.40;9.10;;;;;;;24.76;65.18;101373.58;106768;1255;61385;-70
2022/07/03 06:26:29;;;;;;;14.70;9.30;;;;;;;24.69;65.41;101371.93;106578;1256;61833;-72
2022/07/03 06:28:58;;;;;;;11.10;8.40;;;;;;;24.81;65.08;101377.13;106722;1256;71111;-69
2022/07/03 06:31:27;;;;;;;13.50;9.30;;;;;;;24.91;64.84;101371.84;106852;1255;69639;-70
2022/07/03 06:33:56;;;;;;;11.40;8.70;;;;;;;25.10;64.21;101376.22;106607;1257;68768;-71
2022/07/03 06:36:25;;;;;;;10.40;8.50;;;;;;;25.18;63.97;101373.85;106813;1255;62482;-69
2022/07/03 06:38:54;;;;;;;13.20;8.70;;;;;;;25.28;63.67;101373.65;106770;1255;58823;-65
2022/07/03 06:41:23;;;;;;;10.40;8.80;;;;;;;25.39;63.17;101373.80;106743;1254;61834;-67
2022/07/03 06:43:52;;;;;;;8.70;7.90;;;;;;;25.42;63.09;101376.54;106711;1255;64197;-68
2022/07/03 06:46:21;;;;;;;9.90;8.80;;;;;;;25.37;63.41;101377.98;106657;1257;62069;-69
2022/07/03 06:48:50;;;;;;;13.60;9.70;;;;;;;25.32;63.09;101374.11;106693;1255;59884;-68
2022/07/03 06:51:19;;;;;;;15.30;10.00;;;;;;;25.17;63.97;101375.36;106775;1255;63658;-66
2022/07/03 06:53:48;;;;;;;11.80;9.40;;;;;;;25.29;63.78;101374.04;106750;1255;59068;-71
2022/07/03 06:56:17;;;;;;;14.00;9.80;;;;;;;25.35;63.75;101368.70;106534;1257;59157;-68
2022/07/03 06:58:46;;;;;;;10.00;7.90;;;;;;;25.46;63.33;101375.26;106707;1255;62432;-68
2022/07/03 07:01:15;;;;;;;10.60;8.90;;;;;;;25.43;63.43;101373.98;106702;1255;70894;-67
2022/07/03 07:03:44;;;;;;;10.60;9.10;;;;;;;25.59;62.82;101374.17;106700;1256;70134;-67
2022/07/03 07:06:13;;;;;;;12.20;9.30;;;;;;;25.64;62.31;101377.05;106660;1256;73373;-70
2022/07/03 07:08:41;;;;;;;13.70;9.80;;;;;;;25.65;62.16;101371.77;106558;1255;60842;-70
2022/07/03 07:11:10;;;;;;;12.50;9.20;;;;;;;25.55;62.62;101371.87;106647;1256;59195;-71
2022/07/03 07:13:40;;;;;;;14.90;9.30;;;;;;;25.61;62.34;101372.63;106732;1256;63312;-71
2022/07/03 07:16:09;;;;;;;14.40;10.00;;;;;;;25.48;62.59;101367.50;106701;1255;72467;-69
2022/07/03 07:18:41;;;;;;;11.40;9.70;;;;;;;25.62;62.27;101368.48;106437;1259;59656;-69
2022/07/03 07:21:10;;;;;;;11.00;9.80;;;;;;;25.52;62.38;101370.75;106671;1255;72744;-69
2022/07/03 07:23:39;;;;;;;12.90;9.10;;;;;;;25.70;61.66;101371.47;106698;1255;59070;-70
2022/07/03 07:26:08;;;;;;;12.60;9.10;;;;;;;25.80;61.11;101362.66;106636;1256;59082;-68
2022/07/03 07:28:36;;;;;;;16.90;9.60;;;;;;;25.78;61.50;101364.54;106555;1256;74006;-68
2022/07/03 07:31:05;;;;;;;12.00;9.40;;;;;;;25.81;61.54;101363.44;106629;1258;61229;-69
2022/07/03 07:33:34;;;;;;;11.70;9.30;;;;;;;25.93;61.02;101363.63;106790;1255;68840;-69
2022/07/03 07:36:04;;;;;;;10.70;9.50;;;;;;;26.06;60.65;101358.77;106764;1255;63331;-72
2022/07/03 07:38:34;;;;;;;11.60;10.50;;;;;;;26.10;60.63;101357.48;106798;1257;60583;-68
2022/07/03 07:41:03;;;;;;;11.40;10.10;;;;;;;26.07;60.52;101358.06;106831;1255;61704;-68
2022/07/03 07:43:32;;;;;;;16.10;10.40;;;;;;;26.09;60.54;101360.35;106826;1255;75146;-71
2022/07/03 07:46:01;;;;;;;13.40;10.00;;;;;;;26.15;60.39;101358.15;106803;1255;71886;-69
2022/07/03 07:48:31;;;;;;;13.70;9.70;;;;;;;26.03;60.88;101359.98;106632;1256;70168;-66
2022/07/03 07:51:00;;;;;;;11.10;9.40;;;;;;;26.05;60.44;101354.19;106521;1256;73635;-68
2022/07/03 07:53:29;;;;;;;12.80;8.80;;;;;;;26.03;60.70;101351.99;106728;1256;59618;-69
2022/07/03 07:55:58;;;;;;;12.10;9.70;;;;;;;25.98;61.15;101355.46;106770;1256;59105;-68
2022/07/03 07:58:27;;;;;;;12.00;10.20;;;;;;;26.06;60.86;101357.33;106608;1256;74055;-69
2022/07/03 08:06:30;;;;;;;11.10;9.90;;;;;;;25.75;63.08;101354.92;106804;1255;62549;-68
2022/07/03 08:08:59;;;;;;;13.00;9.90;;;;;;;25.67;63.64;101360.90;106701;1256;59013;-73
2022/07/03 08:11:28;;;;;;;12.30;10.00;;;;;;;25.52;64.17;101361.48;106683;1255;60280;-70
2022/07/03 08:13:57;;;;;;;11.30;9.80;;;;;;;25.38;65.02;101368.64;106491;1256;74131;-79
2022/07/03 08:16:25;;;;;;;13.20;10.30;;;;;;;25.42;64.62;101371.98;106425;1257;72667;-77
2022/07/03 08:18:55;;;;;;;12.10;10.80;;;;;;;25.32;64.81;101365.02;106720;1255;71046;-80
2022/07/03 08:21:23;;;;;;;13.90;10.90;;;;;;;25.28;64.79;101366.98;106613;1256;73810;-78
2022/07/03 08:23:53;;;;;;;12.50;10.80;;;;;;;25.24;65.40;101367.56;106783;1255;59091;-79
2022/07/03 08:26:21;;;;;;;10.00;9.00;;;;;;;25.26;65.38;101365.48;106784;1255;60525;-81
2022/07/03 08:28:56;;;;;;;12.80;10.50;;;;;;;25.32;64.99;101367.53;106851;1255;73760;-82
2022/07/03 08:31:25;;;;;;;14.10;10.70;;;;;;;25.33;65.08;101372.91;106747;1256;62409;-83
2022/07/03 08:33:54;;;;;;;12.40;10.00;;;;;;;25.27;65.30;101374.13;106978;1255;67964;-81
2022/07/03 08:36:23;;;;;;;15.10;10.20;;;;;;;25.23;65.52;101374.23;106913;1255;73065;-81
2022/07/03 08:38:51;;;;;;;13.30;9.50;;;;;;;25.24;65.35;101372.30;106879;1256;61636;-79
2022/07/03 08:41:22;;;;;;;16.80;10.60;;;;;;;25.15;66.06;101379.73;106939;1255;58975;-78
2022/07/03 08:43:51;;;;;;;14.90;10.30;;;;;;;25.07;66.72;101377.99;106878;1255;72020;-79
2022/07/03 08:46:20;;;;;;;17.90;11.30;;;;;;;25.21;66.20;101374.73;106534;1259;60714;-72
2022/07/03 08:48:50;;;;;;;21.00;11.60;;;;;;;25.33;65.63;101383.15;106798;1255;70482;-75
2022/07/03 08:51:21;;;;;;;17.30;12.40;;;;;;;25.31;65.62;101384.26;106877;1255;63684;-78
2022/07/03 08:53:52;;;;;;;14.50;10.30;;;;;;;25.32;65.84;101385.75;106715;1255;61341;-80
2022/07/03 08:56:23;;;;;;;16.90;11.50;;;;;;;25.40;65.48;101388.58;106660;1256;60123;-75
2022/07/03 08:58:52;;;;;;;13.50;11.50;;;;;;;25.34;66.04;101390.66;106705;1256;73634;-80
2022/07/03 09:01:21;;;;;;;16.10;11.20;;;;;;;25.40;65.94;101390.52;106644;1259;71192;-78
2022/07/03 09:03:52;;;;;;;12.10;10.80;;;;;;;25.45;66.12;101392.36;106654;1259;60631;-79
2022/07/03 09:06:21;;;;;;;14.60;11.40;;;;;;;25.50;66.14;101391.91;106786;1256;62558;-74
2022/07/03 09:08:51;;;;;;;13.40;11.60;;;;;;;25.57;65.87;101393.54;106662;1257;61375;-73
2022/07/03 09:11:20;;;;;;;14.60;11.50;;;;;;;25.59;66.31;101392.73;106596;1256;58945;-76
2022/07/03 09:13:49;;;;;;;14.20;12.00;;;;;;;25.61;67.17;101387.70;106748;1256;63844;-78
2022/07/03 09:16:22;;;;;;;15.10;12.70;;;;;;;25.78;66.54;101389.77;106869;1256;71500;-72
2022/07/03 09:18:51;;;;;;;19.00;12.40;;;;;;;26.04;65.39;101387.62;106845;1255;70195;-64
2022/07/03 09:21:20;;;;;;;16.20;12.00;;;;;;;26.21;64.70;101389.29;106843;1255;63904;-71
2022/07/03 09:23:49;;;;;;;14.10;12.50;;;;;;;26.40;63.50;101392.86;106739;1255;59184;-71
2022/07/03 09:26:19;;;;;;;14.10;11.70;;;;;;;26.57;62.59;101380.92;106774;1255;61734;-70
2022/07/03 09:28:51;;;;;;;14.60;11.70;;;;;;;26.63;62.07;101375.75;106803;1256;62569;-70
2022/07/03 09:31:28;;;;;;;17.20;11.90;;;;;;;26.87;61.44;101373.89;106500;1258;60929;-67
2022/07/03 09:34:10;;;;;;;13.10;11.50;;;;;;;27.26;60.98;101368.50;106594;1256;70722;-70
2022/07/03 09:36:41;;;;;;;12.50;10.90;;;;;;;27.38;59.77;101368.11;106721;1255;64160;-67
2022/07/03 09:39:40;;;;;;;12.80;11.50;;;;;;;27.73;58.41;101369.11;106743;1255;61334;-67
2022/07/03 09:42:09;;;;;;;12.90;11.10;;;;;;;27.97;57.02;101364.12;106535;1256;60701;-69
2022/07/03 09:44:45;;;;;;;15.20;11.70;;;;;;;28.40;55.08;101362.74;106626;1256;74156;-67
2022/07/03 09:47:23;;;;;;;15.60;11.50;;;;;;;28.53;54.73;101358.80;106746;1255;71271;-64
2022/07/03 09:49:55;;;;;;;15.10;11.60;;;;;;;28.85;54.13;101355.38;106803;1255;68868;-65
2022/07/03 09:52:40;;;;;;;13.20;11.40;;;;;;;28.97;53.77;101354.41;106830;1256;63297;-69
2022/07/03 09:55:08;;;;;;;15.70;11.50;;;;;;;29.19;52.60;101354.48;106741;1255;61202;-70
2022/07/03 09:57:45;;;;;;;11.80;10.50;;;;;;;29.25;51.64;101354.14;106802;1256;61252;-66
2022/07/03 10:00:22;;;;;;;14.00;10.20;;;;;;;29.54;51.68;101358.72;106528;1258;74338;-71
2022/07/03 10:03:09;;;;;;;13.00;10.10;;;;;;;29.57;50.79;101354.89;106609;1257;62518;-77
2022/07/03 10:05:43;;;;;;;10.40;9.20;;;;;;;29.73;50.88;101353.25;106748;1256;59292;-72
2022/07/03 10:08:19;;;;;;;12.60;11.00;;;;;;;29.81;49.98;101353.80;106814;1256;63945;-82
2022/07/03 10:10:48;;;;;;;11.00;9.90;;;;;;;29.78;49.83;101347.33;106622;1255;60947;-81
2022/07/03 10:13:17;;;;;;;11.50;10.30;;;;;;;29.74;49.70;101347.57;106621;1256;59035;-80
2022/07/03 10:15:46;;;;;;;11.10;10.00;;;;;;;29.72;49.74;101342.74;107090;1255;72958;-79
2022/07/03 10:18:20;;;;;;;11.60;10.50;;;;;;;29.72;49.70;101336.38;107006;1259;72710;-83
2022/07/03 10:20:50;;;;;;;12.90;11.00;;;;;;;29.72;49.93;101336.45;106718;1256;71440;-75
2022/07/03 10:23:22;;;;;;;11.90;10.70;;;;;;;29.38;50.00;101329.29;106872;1255;74356;-81
2022/07/03 10:25:51;;;;;;;11.40;9.60;;;;;;;29.46;50.16;101328.02;106778;1255;59137;-83
2022/07/03 10:28:21;;;;;;;10.80;9.70;;;;;;;29.86;48.88;101322.80;106658;1255;59516;-85
2022/07/03 10:30:50;;;;;;;14.50;10.50;;;;;;;29.95;48.49;101323.82;106713;1257;72892;-83
2022/07/03 10:33:19;;;;;;;11.10;10.10;;;;;;;29.86;48.56;101323.70;106709;1258;73021;-84
2022/07/03 10:35:53;;;;;;;13.30;10.10;;;;;;;29.69;48.58;101317.75;106770;1258;60526;-81
2022/07/03 10:38:28;;;;;;;12.50;10.40;;;;;;;30.11;47.99;101318.48;106667;1258;63566;-82
2022/07/03 10:47:05;;;;;;;10.40;9.00;;;;;;;31.06;45.81;101305.70;106750;1258;63641;-79
2022/07/03 10:50:19;;;;;;;11.00;9.70;;;;;;;31.05;45.84;101304.72;106856;1255;61846;-84
2022/07/03 10:52:50;;;;;;;11.50;8.90;;;;;;;31.55;45.29;101299.38;106870;1257;69428;-86
2022/07/03 10:55:20;;;;;;;10.10;9.20;;;;;;;31.74;44.83;101295.70;106997;1257;73634;-83
2022/07/03 10:58:09;;;;;;;10.70;9.50;;;;;;;32.07;43.94;101294.89;106875;1256;61535;-88
2022/07/03 11:00:57;;;;;;;10.70;9.30;;;;;;;31.89;43.01;101292.45;106898;1255;62000;-74
2022/07/03 11:04:01;;;;;;;9.70;8.60;;;;;;;32.10;43.38;101285.44;106621;1255;74119;-75
2022/07/03 11:06:42;;;;;;;12.20;9.60;;;;;;;32.17;42.31;101276.66;106970;1255;61362;-78
2022/07/03 11:09:15;;;;;;;9.60;8.40;;;;;;;31.86;43.08;101269.27;106871;1255;60081;-70
2022/07/03 11:11:57;;;;;;;10.60;9.40;;;;;;;32.15;42.37;101266.30;106564;1255;75224;-79
2022/07/03 11:14:27;;;;;;;10.50;9.20;;;;;;;32.44;41.00;101260.85;106748;1256;59949;-73
2022/07/03 11:17:20;;;;;;;9.50;8.50;;;;;;;32.88;40.54;101256.72;106940;1255;59591;-70
2022/07/03 11:22:53;;;;;;;8.40;7.50;;;;;;;33.57;37.63;101256.36;106684;1257;71851;-71
2022/07/03 11:25:25;;;;;;;8.30;7.20;;;;;;;34.15;37.19;101252.23;106583;1259;71493;-72
2022/07/03 11:27:54;;;;;;;9.10;7.70;;;;;;;34.20;35.75;101256.30;106531;1257;73614;-73
2022/07/03 11:30:25;;;;;;;7.60;6.80;;;;;;;33.99;35.16;101248.23;106687;1256;59638;-75
2022/07/03 11:32:57;;;;;;;8.00;6.30;;;;;;;33.98;34.28;101247.31;106819;1256;62048;-76
2022/07/03 11:35:48;;;;;;;;;;;;;;;33.57;35.03;101237.56;106593;1256;63568;-74
2022/07/03 11:38:27;;;;;;;9.20;7.30;;;;;;;33.28;36.09;101230.06;106746;1256;72376;-73
2022/07/03 11:40:59;;;;;;;8.60;7.20;;;;;;;33.43;35.50;101230.94;106761;1258;71009;-71
2022/07/03 11:43:28;;;;;;;9.30;6.80;;;;;;;34.25;34.48;101223.86;106968;1256;62952;-73
2022/07/03 11:45:58;;;;;;;8.00;6.20;;;;;;;34.45;34.01;101221.56;106758;1258;57949;-72
2022/07/03 11:48:27;;;;;;;7.90;6.80;;;;;;;34.65;32.91;101213.26;106365;1256;61362;-72
2022/07/03 11:51:03;;;;;;;8.80;6.70;;;;;;;34.66;32.66;101208.52;106333;1258;63607;-76
2022/07/03 11:53:35;;;;;;;9.80;7.30;;;;;;;34.11;33.92;101203.23;106643;1256;72453;-77
2022/07/03 11:56:07;;;;;;;8.90;6.50;;;;;;;34.10;33.80;101197.90;106654;1256;60560;-76
2022/07/03 11:58:58;;;;;;;8.40;7.30;;;;;;;34.37;32.71;101191.67;106540;1256;74130;-78
2022/07/03 12:01:26;;;;;;;7.10;6.40;;;;;;;33.90;33.76;101186.21;106697;1255;60335;-75